createdAt,value
2017-11-08T00:01:07.665Z,33.13
2017-11-08T00:03:36.619Z,30.23
2017-11-08T00:06:07.424Z,31.17
2017-11-08T00:08:37.393Z,33.50
2017-11-08T00:11:06.735Z,31.63
2017-11-08T00:13:35.954Z,29.67
2017-11-08T00:16:09.334Z,29.90
2017-11-08T00:18:38.946Z,32.17
2017-11-08T00:21:07.656Z,33.37
2017-11-08T00:23:41.621Z,31.80
2017-11-08T00:26:11.293Z,33.20
2017-11-08T00:28:40.512Z,31.47
2017-11-08T00:31:09.921Z,30.87
2017-11-08T00:33:38.994Z,34.40
2017-11-08T00:36:08.117Z,32.17
2017-11-08T00:38:37.939Z,30.37
2017-11-08T00:41:08.484Z,31.50
2017-11-08T00:43:38.266Z,32.97
2017-11-08T00:46:07.719Z,32.13
2017-11-08T00:48:36.841Z,34.17
2017-11-08T00:51:06.229Z,32.97
2017-11-08T00:53:35.871Z,34.13
2017-11-08T00:56:05.215Z,33.40
2017-11-08T00:58:34.973Z,33.40
2017-11-08T01:01:04.142Z,33.63
2017-11-08T01:03:32.907Z,33.30
2017-11-08T01:06:02.555Z,31.73
2017-11-08T01:08:31.085Z,29.90
2017-11-08T01:11:00.405Z,31.50
2017-11-08T01:13:28.740Z,32.20
2017-11-08T01:15:57.038Z,30.07
2017-11-08T01:18:25.406Z,32.50
2017-11-08T01:20:53.652Z,32.70
2017-11-08T01:23:21.917Z,33.00
2017-11-08T01:25:50.172Z,36.70
2017-11-08T01:28:18.727Z,34.53
2017-11-08T01:30:47.009Z,34.93
2017-11-08T01:33:15.262Z,35.83
2017-11-08T01:35:43.506Z,35.00
2017-11-08T01:38:12.540Z,36.30
2017-11-08T01:40:43.196Z,32.30
2017-11-08T01:43:11.905Z,33.60
2017-11-08T01:45:41.925Z,32.47
2017-11-08T01:48:10.497Z,31.03
2017-11-08T01:50:38.951Z,32.60
2017-11-08T01:53:07.319Z,36.03
2017-11-08T01:55:38.459Z,36.37
2017-11-08T01:58:06.797Z,33.83
2017-11-08T02:00:35.092Z,32.13
2017-11-08T02:03:03.472Z,33.13
2017-11-08T02:05:31.713Z,35.73
2017-11-08T02:07:59.956Z,29.27
2017-11-08T02:10:28.890Z,35.50
2017-11-08T02:12:57.192Z,32.27
2017-11-08T02:15:25.427Z,37.00
2017-11-08T02:20:47.884Z,32.60
2017-11-08T02:23:16.567Z,36.10
2017-11-08T02:25:45.531Z,35.00
2017-11-08T02:28:13.780Z,35.70
2017-11-08T02:30:42.074Z,32.30
2017-11-08T02:33:10.404Z,34.70
2017-11-08T02:35:38.670Z,37.50
2017-11-08T02:38:07.408Z,56.77
2017-11-08T02:40:35.678Z,36.87
2017-11-08T02:43:03.920Z,35.73
2017-11-08T02:45:35.134Z,35.20
2017-11-08T02:48:03.872Z,34.07
2017-11-08T02:50:32.129Z,35.07
2017-11-08T02:53:00.412Z,38.13
2017-11-08T02:55:31.132Z,37.00
2017-11-08T02:57:59.400Z,35.50
2017-11-08T03:00:34.606Z,35.07
2017-11-08T03:03:02.928Z,33.43
2017-11-08T03:05:31.193Z,35.77
2017-11-08T03:07:59.877Z,33.83
2017-11-08T03:10:28.124Z,34.33
2017-11-08T03:12:56.383Z,36.07
2017-11-08T03:15:24.659Z,33.83
2017-11-08T03:17:52.957Z,33.30
2017-11-08T03:20:21.192Z,31.27
2017-11-08T03:22:49.579Z,34.27
2017-11-08T03:25:18.349Z,33.40
2017-11-08T03:27:46.603Z,34.97
2017-11-08T03:30:14.886Z,37.20
2017-11-08T03:32:43.152Z,38.10
2017-11-08T03:35:11.430Z,37.77
2017-11-08T03:37:39.732Z,34.70
2017-11-08T03:40:07.985Z,35.97
2017-11-08T03:42:36.228Z,37.83
2017-11-08T03:45:04.501Z,39.40
2017-11-08T03:47:32.789Z,38.03
2017-11-08T03:50:01.048Z,38.73
2017-11-08T03:52:30.171Z,36.47
2017-11-08T03:54:58.830Z,35.33
2017-11-08T03:57:27.312Z,35.50
2017-11-08T03:59:55.607Z,34.10
2017-11-08T04:02:23.888Z,36.33
2017-11-08T04:04:52.565Z,36.80
2017-11-08T04:07:21.255Z,34.83
2017-11-08T04:09:49.526Z,35.20
2017-11-08T04:12:17.761Z,31.67
2017-11-08T04:14:46.036Z,33.57
2017-11-08T04:17:14.277Z,35.77
2017-11-08T04:19:42.541Z,35.93
2017-11-08T04:22:11.229Z,33.57
2017-11-08T04:24:39.890Z,37.30
2017-11-08T04:27:08.175Z,35.23
2017-11-08T04:29:36.448Z,35.50
2017-11-08T04:32:04.694Z,36.63
2017-11-08T04:34:32.976Z,37.67
2017-11-08T04:37:01.265Z,39.40
2017-11-08T04:39:29.517Z,36.23
2017-11-08T04:41:57.772Z,36.60
2017-11-08T04:44:26.107Z,35.23
2017-11-08T04:46:54.366Z,32.83
2017-11-08T04:49:22.633Z,32.90
2017-11-08T04:51:51.012Z,37.37
2017-11-08T04:54:19.272Z,36.60
2017-11-08T04:56:47.525Z,33.73
2017-11-08T04:59:15.800Z,34.23
2017-11-08T05:01:44.090Z,35.60
2017-11-08T05:04:12.345Z,37.10
2017-11-08T05:06:40.665Z,37.10
2017-11-08T05:09:08.958Z,37.00
2017-11-08T05:11:37.304Z,31.73
2017-11-08T05:14:05.562Z,36.57
2017-11-08T05:16:33.803Z,36.03
2017-11-08T05:19:02.514Z,36.93
2017-11-08T05:21:30.836Z,34.33
2017-11-08T05:23:59.100Z,35.40
2017-11-08T05:26:27.398Z,36.50
2017-11-08T05:28:55.661Z,34.47
2017-11-08T05:31:23.887Z,38.00
2017-11-08T05:33:52.180Z,32.80
2017-11-08T05:36:20.458Z,34.40
2017-11-08T05:38:48.769Z,35.27
2017-11-08T05:41:17.100Z,33.23
2017-11-08T05:43:45.382Z,32.00
2017-11-08T05:46:13.626Z,36.70
2017-11-08T05:48:42.317Z,34.37
2017-11-08T05:51:10.965Z,32.13
2017-11-08T05:53:39.262Z,34.07
2017-11-08T05:56:07.577Z,36.30
2017-11-08T05:58:35.879Z,32.50
2017-11-08T06:01:04.160Z,36.23
2017-11-08T06:03:32.445Z,34.57
2017-11-08T06:06:00.685Z,30.50
2017-11-08T06:08:28.951Z,35.57
2017-11-08T06:10:57.616Z,33.00
2017-11-08T06:13:26.258Z,35.40
2017-11-08T06:15:54.500Z,36.03
2017-11-08T06:18:22.810Z,33.87
2017-11-08T06:20:51.053Z,34.37
2017-11-08T06:23:19.589Z,31.97
2017-11-08T06:25:47.977Z,36.23
2017-11-08T06:28:16.250Z,33.67
2017-11-08T06:30:44.929Z,35.23
2017-11-08T06:33:13.209Z,34.13
2017-11-08T06:35:41.460Z,34.57
2017-11-08T06:38:09.708Z,34.90
2017-11-08T06:40:38.017Z,32.20
2017-11-08T06:43:06.264Z,37.20
2017-11-08T06:45:34.603Z,36.60
2017-11-08T06:48:02.930Z,36.87
2017-11-08T06:50:33.031Z,38.17
2017-11-08T06:53:02.206Z,33.70
2017-11-08T06:55:30.549Z,33.03
2017-11-08T06:58:05.717Z,35.50
2017-11-08T07:00:34.025Z,35.20
2017-11-08T07:03:02.258Z,33.00
2017-11-08T07:05:30.790Z,31.20
2017-11-08T07:07:59.032Z,33.90
2017-11-08T07:10:27.386Z,33.67
2017-11-08T07:12:55.964Z,30.17
2017-11-08T07:15:24.280Z,33.03
2017-11-08T07:17:52.568Z,33.60
2017-11-08T07:20:20.828Z,34.00
2017-11-08T07:22:49.097Z,30.70
2017-11-08T07:25:17.399Z,32.07
2017-11-08T07:27:45.661Z,36.40
2017-11-08T07:30:14.274Z,33.63
2017-11-08T07:32:42.574Z,34.93
2017-11-08T07:35:10.864Z,33.60
2017-11-08T07:37:39.141Z,33.00
2017-11-08T07:40:07.844Z,34.13
2017-11-08T07:42:36.536Z,32.47
2017-11-08T07:45:05.226Z,31.80
2017-11-08T07:47:33.597Z,29.33
2017-11-08T07:50:01.912Z,28.20
2017-11-08T07:52:30.227Z,28.70
2017-11-08T07:55:01.489Z,26.37
2017-11-08T07:57:30.160Z,28.77
2017-11-08T07:59:58.741Z,27.20
2017-11-08T08:02:27.037Z,26.90
2017-11-08T08:04:55.715Z,25.00
2017-11-08T08:07:25.931Z,25.63
2017-11-08T08:09:54.237Z,26.47
2017-11-08T08:12:27.050Z,25.30
2017-11-08T08:14:55.749Z,24.20
2017-11-08T08:17:24.022Z,25.00
2017-11-08T08:19:52.500Z,24.57
2017-11-08T08:22:20.887Z,23.57
2017-11-08T08:24:49.181Z,23.30
2017-11-08T08:27:17.495Z,24.87
2017-11-08T08:29:45.811Z,25.90
2017-11-08T08:32:14.063Z,25.20
2017-11-08T08:34:42.378Z,25.00
2017-11-08T08:37:10.689Z,25.40
2017-11-08T08:39:39.832Z,26.00
2017-11-08T08:42:08.132Z,25.00
2017-11-08T08:44:36.497Z,24.87
2017-11-08T08:47:04.789Z,23.37
2017-11-08T08:49:33.172Z,25.50
2017-11-08T08:52:01.441Z,22.90
2017-11-08T08:54:29.711Z,25.27
2017-11-08T08:56:58.193Z,25.10
2017-11-08T08:59:26.459Z,24.37
2017-11-08T09:01:55.513Z,24.97
2017-11-08T09:04:23.946Z,25.67
2017-11-08T09:06:52.307Z,25.20
2017-11-08T09:09:20.998Z,24.53
2017-11-08T09:11:49.259Z,24.70
2017-11-08T09:14:17.511Z,28.00
2017-11-08T09:16:46.698Z,26.83
2017-11-08T09:19:14.968Z,27.40
2017-11-08T09:21:43.620Z,25.40
2017-11-08T09:24:13.907Z,26.93
2017-11-08T09:26:45.300Z,27.90
2017-11-08T09:32:13.151Z,27.70
2017-11-08T09:34:47.371Z,27.73
2017-11-08T09:37:15.655Z,26.00
2017-11-08T09:39:43.913Z,24.87
2017-11-08T09:42:14.059Z,26.60
2017-11-08T09:44:42.320Z,23.17
2017-11-08T09:47:10.585Z,27.60
2017-11-08T09:49:38.922Z,31.00
2017-11-08T09:52:07.593Z,28.70
2017-11-08T09:54:36.262Z,29.43
2017-11-08T09:57:10.153Z,27.33
2017-11-08T09:59:38.503Z,29.97
2017-11-08T10:02:06.763Z,28.87
2017-11-08T10:04:35.157Z,27.67
2017-11-08T10:07:03.916Z,29.97
2017-11-08T10:09:36.695Z,29.03
2017-11-08T10:12:12.327Z,28.83
2017-11-08T10:14:40.692Z,29.53
2017-11-08T10:17:10.802Z,27.63
2017-11-08T10:19:39.116Z,29.30
2017-11-08T10:22:10.348Z,27.47
2017-11-08T10:24:42.459Z,29.00
2017-11-08T10:27:10.793Z,29.13
2017-11-08T10:29:39.088Z,29.20
2017-11-08T10:32:07.747Z,29.70
2017-11-08T10:34:36.012Z,28.30
2017-11-08T10:37:04.309Z,28.67
2017-11-08T10:39:32.610Z,28.50
2017-11-08T10:42:01.111Z,28.50
2017-11-08T10:44:29.467Z,28.57
2017-11-08T10:46:57.869Z,28.00
2017-11-08T10:49:31.911Z,28.60
2017-11-08T10:52:00.612Z,30.50
2017-11-08T10:54:30.687Z,29.40
2017-11-08T10:56:58.942Z,25.80
2017-11-08T10:59:28.119Z,28.03
2017-11-08T11:01:56.427Z,29.03
2017-11-08T11:04:24.670Z,28.33
2017-11-08T11:06:53.013Z,28.37
2017-11-08T11:09:23.184Z,27.50
2017-11-08T11:11:51.439Z,29.93
2017-11-08T11:14:19.704Z,27.00
2017-11-08T11:16:48.357Z,28.53
2017-11-08T11:19:20.417Z,27.90
2017-11-08T11:21:48.702Z,27.47
2017-11-08T11:24:17.873Z,29.20
2017-11-08T11:26:49.072Z,27.70
2017-11-08T11:29:17.710Z,27.30
2017-11-08T11:31:46.111Z,28.97
2017-11-08T11:34:14.365Z,28.63
2017-11-08T11:36:42.633Z,30.50
2017-11-08T11:39:12.801Z,27.50
2017-11-08T11:41:41.054Z,26.97
2017-11-08T11:44:10.251Z,26.97
2017-11-08T11:46:38.517Z,25.97
2017-11-08T11:49:11.360Z,27.50
2017-11-08T11:51:39.695Z,29.57
2017-11-08T11:54:07.946Z,22.33
2017-11-08T11:56:36.209Z,29.27
2017-11-08T11:59:04.520Z,27.90
2017-11-08T12:01:32.767Z,28.70
2017-11-08T12:04:02.150Z,28.70
2017-11-08T12:06:31.531Z,28.97
2017-11-08T12:08:59.790Z,29.50
2017-11-08T12:11:28.495Z,30.67
2017-11-08T12:13:57.156Z,28.27
2017-11-08T12:16:25.484Z,29.10
2017-11-08T12:18:53.757Z,27.53
2017-11-08T12:21:22.897Z,29.97
2017-11-08T12:23:52.079Z,30.13
2017-11-08T12:26:20.386Z,28.80
2017-11-08T12:28:48.651Z,29.70
2017-11-08T12:31:16.904Z,28.40
2017-11-08T12:33:45.166Z,29.57
2017-11-08T12:36:13.983Z,29.30
2017-11-08T12:38:42.818Z,28.57
2017-11-08T12:41:11.592Z,30.20
2017-11-08T12:46:37.983Z,32.30
2017-11-08T12:49:07.183Z,30.03
2017-11-08T12:51:35.742Z,29.40
2017-11-08T12:54:04.553Z,23.93
2017-11-08T12:56:35.343Z,30.60
2017-11-08T12:59:03.975Z,30.23
2017-11-08T13:01:33.169Z,32.97
2017-11-08T13:04:01.716Z,29.83
2017-11-08T13:06:30.376Z,27.83
2017-11-08T13:08:59.327Z,31.47
2017-11-08T13:11:33.935Z,30.03
2017-11-08T13:14:02.760Z,31.47
2017-11-08T13:16:31.627Z,26.60
2017-11-08T13:19:00.076Z,27.87
2017-11-08T13:21:29.509Z,30.20
2017-11-08T13:23:58.364Z,27.83
2017-11-08T13:26:26.876Z,28.30
2017-11-08T13:28:55.530Z,29.40
2017-11-08T13:31:24.010Z,24.67
2017-11-08T13:33:52.442Z,27.77
2017-11-08T13:36:20.706Z,29.40
2017-11-08T13:38:48.973Z,29.03
2017-11-08T13:41:17.385Z,27.53
2017-11-08T13:43:45.686Z,27.57
2017-11-08T13:46:13.950Z,30.10
2017-11-08T13:48:42.478Z,31.57
2017-11-08T13:51:11.453Z,30.13
2017-11-08T13:53:39.744Z,32.40
2017-11-08T13:56:08.394Z,30.27
2017-11-08T13:58:36.688Z,28.47
2017-11-08T14:01:04.966Z,29.63
2017-11-08T14:03:33.244Z,33.00
2017-11-08T14:06:02.022Z,31.57
2017-11-08T14:08:30.340Z,30.03
2017-11-08T14:10:58.995Z,32.73
2017-11-08T14:13:27.671Z,31.70
2017-11-08T14:15:55.942Z,32.77
2017-11-08T14:18:24.192Z,31.80
2017-11-08T14:20:52.522Z,31.00
2017-11-08T14:23:20.823Z,32.50
2017-11-08T14:25:49.082Z,28.80
2017-11-08T14:28:17.684Z,31.63
2017-11-08T14:30:45.947Z,29.67
2017-11-08T14:33:14.455Z,28.20
2017-11-08T14:35:42.936Z,31.60
2017-11-08T14:38:11.590Z,31.73
2017-11-08T14:40:40.153Z,30.17
2017-11-08T14:43:08.649Z,30.07
2017-11-08T14:45:37.278Z,32.00
2017-11-08T14:48:05.994Z,32.93
2017-11-08T14:50:34.519Z,33.57
2017-11-08T14:53:07.767Z,34.00
2017-11-08T14:55:36.056Z,36.27
2017-11-08T14:58:04.776Z,32.87
2017-11-08T15:00:33.030Z,34.57
2017-11-08T15:03:01.689Z,41.53
2017-11-08T15:05:30.375Z,30.27
2017-11-08T15:07:58.680Z,31.50
2017-11-08T15:10:26.968Z,26.00
2017-11-08T15:12:55.639Z,33.13
2017-11-08T15:15:23.911Z,33.00
2017-11-08T15:17:52.202Z,32.33
2017-11-08T15:20:23.700Z,36.47
2017-11-08T15:22:51.969Z,30.67
2017-11-08T15:25:20.300Z,32.00
2017-11-08T15:27:48.968Z,31.97
2017-11-08T15:30:23.008Z,32.43
2017-11-08T15:32:51.307Z,36.07
2017-11-08T15:35:19.584Z,36.67
2017-11-08T15:37:47.894Z,33.50
2017-11-08T15:40:31.782Z,32.43
2017-11-08T15:43:00.398Z,30.87
2017-11-08T15:45:28.696Z,33.00
2017-11-08T15:47:56.961Z,32.97
2017-11-08T15:50:25.229Z,32.90
2017-11-08T15:52:53.526Z,33.07
2017-11-08T15:55:21.782Z,32.67
2017-11-08T15:57:50.057Z,33.23
2017-11-08T16:00:18.461Z,36.10
2017-11-08T16:02:53.398Z,33.53
2017-11-08T16:05:21.678Z,33.63
2017-11-08T16:07:49.979Z,34.60
2017-11-08T16:10:18.274Z,33.70
2017-11-08T16:12:46.621Z,35.23
2017-11-08T16:15:14.950Z,35.00
2017-11-08T16:17:43.247Z,33.50
2017-11-08T16:20:16.489Z,31.80
2017-11-08T16:22:44.800Z,32.70
2017-11-08T16:25:13.105Z,35.00
2017-11-08T16:27:41.354Z,31.40
2017-11-08T16:30:09.661Z,33.70
2017-11-08T16:32:37.929Z,35.43
2017-11-08T16:35:06.214Z,33.93
2017-11-08T16:37:34.564Z,36.87
2017-11-08T16:40:02.839Z,29.73
2017-11-08T16:42:31.151Z,36.60
2017-11-08T16:45:00.167Z,37.20
2017-11-08T16:47:28.471Z,35.00
2017-11-08T16:49:56.821Z,34.43
2017-11-08T16:52:25.507Z,31.53
2017-11-08T16:54:53.821Z,33.10
2017-11-08T16:57:22.098Z,32.93
2017-11-08T16:59:50.358Z,31.77
2017-11-08T17:02:18.650Z,33.23
2017-11-08T17:04:46.946Z,33.10
2017-11-08T17:07:15.239Z,35.47
2017-11-08T17:09:43.497Z,35.20
2017-11-08T17:12:11.885Z,34.97
2017-11-08T17:14:40.138Z,33.80
2017-11-08T17:17:08.447Z,33.57
2017-11-08T17:19:37.179Z,33.83
2017-11-08T17:22:05.433Z,30.80
2017-11-08T17:24:33.745Z,32.90
2017-11-08T17:27:02.112Z,30.10
2017-11-08T17:29:30.429Z,32.30
2017-11-08T17:31:58.697Z,32.30
2017-11-08T17:34:27.294Z,34.50
2017-11-08T17:36:55.558Z,33.60
2017-11-08T17:39:23.838Z,33.93
2017-11-08T17:41:52.115Z,34.73
2017-11-08T17:44:20.406Z,35.53
2017-11-08T17:46:48.671Z,31.13
2017-11-08T17:49:17.371Z,33.23
2017-11-08T17:51:45.689Z,30.37
2017-11-08T17:54:13.961Z,34.87
2017-11-08T17:56:42.230Z,31.10
2017-11-08T17:59:10.521Z,33.77
2017-11-08T18:01:38.783Z,32.60
2017-11-08T18:04:07.090Z,32.17
2017-11-08T18:06:35.350Z,34.27
2017-11-08T18:09:03.604Z,35.37
2017-11-08T18:11:31.875Z,34.83
2017-11-08T18:14:00.565Z,35.33
2017-11-08T18:16:28.895Z,33.40
2017-11-08T18:18:57.274Z,34.40
2017-11-08T18:21:25.519Z,32.10
2017-11-08T18:23:53.761Z,31.60
2017-11-08T18:26:22.429Z,35.10
2017-11-08T18:28:51.421Z,33.33
2017-11-08T18:31:19.656Z,31.70
2017-11-08T18:33:47.932Z,31.37
2017-11-08T18:36:16.194Z,34.27
2017-11-08T18:38:44.442Z,31.97
2017-11-08T18:41:13.701Z,34.40
2017-11-08T18:43:41.949Z,31.27
2017-11-08T18:46:11.502Z,31.57
2017-11-08T18:48:39.731Z,33.03
2017-11-08T18:51:07.974Z,34.20
2017-11-08T18:53:36.450Z,32.53
2017-11-08T18:56:05.101Z,31.10
2017-11-08T18:58:33.790Z,32.27
2017-11-08T19:01:02.068Z,36.77
2017-11-08T19:03:30.319Z,34.30
2017-11-08T19:05:58.579Z,34.27
2017-11-08T19:08:26.869Z,36.40
2017-11-08T19:10:55.489Z,35.70
2017-11-08T19:13:23.774Z,31.63
2017-11-08T19:15:52.749Z,35.70
2017-11-08T19:18:21.016Z,33.60
2017-11-08T19:20:49.591Z,33.97
2017-11-08T19:23:17.978Z,35.83
2017-11-08T19:25:46.692Z,31.63
2017-11-08T19:28:15.341Z,31.70
2017-11-08T19:30:44.549Z,32.70
2017-11-08T19:33:12.811Z,33.50
2017-11-08T19:35:41.096Z,35.30
2017-11-08T19:38:09.368Z,34.53
2017-11-08T19:40:37.611Z,34.03
2017-11-08T19:43:06.581Z,36.43
2017-11-08T19:45:34.848Z,33.30
2017-11-08T19:48:03.123Z,35.77
2017-11-08T19:50:31.388Z,33.73
2017-11-08T19:52:59.700Z,31.50
2017-11-08T19:55:27.988Z,34.90
2017-11-08T19:57:56.269Z,34.80
2017-11-08T20:00:24.644Z,31.83
2017-11-08T20:02:53.053Z,31.40
2017-11-08T20:05:21.503Z,33.73
2017-11-08T20:07:49.866Z,33.00
2017-11-08T20:10:18.210Z,32.50
2017-11-08T20:12:46.479Z,30.07
2017-11-08T20:15:15.094Z,30.47
2017-11-08T20:17:43.397Z,32.50
2017-11-08T20:20:11.922Z,34.43
2017-11-08T20:22:40.201Z,31.50
2017-11-08T20:25:08.469Z,34.57
2017-11-08T20:27:37.121Z,33.30
2017-11-08T20:30:06.045Z,32.80
2017-11-08T20:32:34.488Z,31.50
2017-11-08T20:35:03.018Z,31.33
2017-11-08T20:37:31.717Z,33.70
2017-11-08T20:40:00.035Z,31.03
2017-11-08T20:42:29.553Z,31.83
2017-11-08T20:44:58.456Z,34.40
2017-11-08T20:47:26.711Z,34.30
2017-11-08T20:49:55.024Z,36.00
2017-11-08T20:52:23.278Z,33.03
2017-11-08T20:54:52.056Z,32.67
2017-11-08T20:57:20.414Z,34.03
2017-11-08T20:59:48.748Z,32.80
2017-11-08T21:02:17.087Z,30.90
2017-11-08T21:04:45.842Z,31.13
2017-11-08T21:07:14.134Z,29.67
2017-11-08T21:09:42.611Z,32.23
2017-11-08T21:12:11.305Z,33.27
2017-11-08T21:14:39.659Z,32.30
2017-11-08T21:17:08.309Z,32.50
2017-11-08T21:19:36.586Z,32.90
2017-11-08T21:22:04.831Z,30.90
2017-11-08T21:24:33.228Z,29.60
2017-11-08T21:27:01.474Z,32.07
2017-11-08T21:29:29.787Z,33.47
2017-11-08T21:31:58.049Z,33.43
2017-11-08T21:34:26.283Z,31.97
2017-11-08T21:36:55.241Z,33.10
2017-11-08T21:39:23.844Z,33.13
2017-11-08T21:41:52.255Z,30.93
2017-11-08T21:44:21.021Z,34.60
2017-11-08T21:46:49.750Z,33.70
2017-11-08T21:49:18.034Z,29.83
2017-11-08T21:51:46.278Z,33.43
2017-11-08T21:54:14.826Z,33.30
2017-11-08T21:56:43.138Z,32.30
2017-11-08T21:59:11.423Z,33.13
2017-11-08T22:01:39.815Z,32.13
2017-11-08T22:04:08.076Z,31.27
2017-11-08T22:06:36.327Z,31.93
2017-11-08T22:09:04.618Z,30.50
2017-11-08T22:11:32.988Z,31.80
2017-11-08T22:14:01.247Z,32.90
2017-11-08T22:16:29.486Z,29.00
2017-11-08T22:18:57.742Z,34.27
2017-11-08T22:21:26.479Z,30.67
2017-11-08T22:23:54.760Z,33.33
2017-11-08T22:26:23.016Z,33.73
2017-11-08T22:28:51.253Z,37.20
2017-11-08T22:31:19.502Z,36.27
2017-11-08T22:33:47.737Z,35.37
2017-11-08T22:36:15.977Z,34.43
2017-11-08T22:38:45.169Z,34.53
2017-11-08T22:41:13.413Z,33.10
2017-11-08T22:43:41.661Z,34.13
2017-11-08T22:46:09.961Z,35.20
2017-11-08T22:48:38.584Z,34.00
2017-11-08T22:51:06.830Z,35.87
2017-11-08T22:53:35.578Z,37.13
2017-11-08T22:56:03.817Z,29.80
2017-11-08T22:58:32.095Z,35.20
2017-11-08T23:01:00.583Z,36.23
2017-11-08T23:03:29.936Z,32.60
2017-11-08T23:05:58.210Z,32.30
2017-11-08T23:08:26.473Z,35.67
2017-11-08T23:10:54.711Z,33.77
2017-11-08T23:13:22.980Z,35.07
2017-11-08T23:15:51.606Z,33.80
2017-11-08T23:18:19.854Z,32.93
2017-11-08T23:20:48.124Z,32.57
2017-11-08T23:23:16.426Z,34.10
2017-11-08T23:25:44.665Z,33.63
2017-11-08T23:28:12.958Z,32.70
2017-11-08T23:30:41.213Z,31.90
2017-11-08T23:33:09.469Z,33.13
2017-11-08T23:35:38.149Z,33.43
2017-11-08T23:38:06.402Z,31.47
2017-11-08T23:40:35.037Z,32.30
2017-11-08T23:43:03.280Z,30.70
2017-11-08T23:45:31.518Z,32.80
2017-11-08T23:47:59.764Z,30.90
2017-11-08T23:50:28.019Z,29.33
2017-11-08T23:52:56.662Z,34.10
2017-11-08T23:55:26.754Z,34.67
2017-11-08T23:57:55.825Z,33.60
